Time;durP1;ratioP1;P1;durP2;ratioP2;P2;SDS_P1;SDS_P2;PMS_P1;PMS_P2;Temp;Humidity;BMP_temperature;BMP_pressure;BME280_temperature;BME280_humidity;BME280_pressure;Samples;Min_cycle;Max_cycle;Signal;HPM_P1;HPM_P2
2022/11/20 00:01:39;;;;;;;;;44.00;37.00;;;;;1.13;100.00;99267.31;6278721;20;2500286;-59
2022/11/20 00:04:10;;;;;;;;;41.00;33.50;;;;;1.31;100.00;99256.19;6279132;20;2857614;-59
2022/11/20 00:06:38;;;;;;;;;44.50;39.00;;;;;1.44;100.00;99261.09;6276113;20;2500735;-59
2022/11/20 00:09:09;;;;;;;;;40.50;37.50;;;;;1.46;100.00;99262.78;6278590;20;2862807;-60
2022/11/20 00:11:38;;;;;;;;;42.00;38.00;;;;;1.49;100.00;99257.41;6276686;20;2864991;-59
2022/11/20 00:14:06;;;;;;;;;41.50;32.50;;;;;1.30;100.00;99270.34;6305347;20;2500288;-59
2022/11/20 00:16:35;;;;;;;;;44.00;34.50;;;;;1.25;100.00;99266.09;6280442;20;2858608;-59
2022/11/20 00:19:03;;;;;;;;;39.50;29.00;;;;;1.19;100.00;99283.03;6278080;20;2866054;-59
2022/11/20 00:21:32;;;;;;;;;40.50;33.50;;;;;1.33;100.00;99293.19;6278619;20;2859648;-59
2022/11/20 00:24:01;;;;;;;;;50.00;37.00;;;;;1.35;100.00;99304.59;6280557;20;2856594;-59
2022/11/20 00:26:30;;;;;;;;;42.00;35.00;;;;;1.37;100.00;99300.13;6277523;20;2852446;-59
2022/11/20 00:29:01;;;;;;;;;46.50;38.50;;;;;1.56;100.00;99307.50;6280615;20;2870184;-59
2022/11/20 00:31:32;;;;;;;;;42.00;37.50;;;;;1.46;100.00;99302.47;6279847;20;2855522;-60
2022/11/20 00:34:00;;;;;;;;;42.50;34.00;;;;;1.33;100.00;99301.13;6279793;20;2858577;-59
2022/11/20 00:36:32;;;;;;;;;45.50;34.00;;;;;1.29;100.00;99302.09;6276785;20;2500327;-60
2022/11/20 00:39:01;;;;;;;;;48.50;35.00;;;;;1.40;100.00;99305.31;6283986;20;2865953;-59
2022/11/20 00:41:30;;;;;;;;;40.50;34.50;;;;;1.27;100.00;99303.94;6286449;20;2864894;-59
2022/11/20 00:43:59;;;;;;;;;32.00;30.00;;;;;1.40;100.00;99305.31;6286588;20;2853431;-60
2022/11/20 00:46:28;;;;;;;;;34.67;29.67;;;;;1.37;100.00;99289.53;6285804;20;3589902;-60
2022/11/20 00:48:57;;;;;;;;;39.00;35.00;;;;;1.35;100.00;99286.06;6283590;20;2859236;-59
2022/11/20 00:51:28;;;;;;;;;50.67;37.00;;;;;1.23;100.00;99279.38;6283834;20;2880810;-59
2022/11/20 00:53:59;;;;;;;;;51.00;38.00;;;;;1.37;100.00;99276.31;6318203;20;2864857;-59
2022/11/20 00:56:29;;;;;;;;;49.50;37.00;;;;;1.17;100.00;99281.34;6316118;20;2881613;-59
2022/11/20 00:59:01;;;;;;;;;49.00;39.00;;;;;1.16;100.00;99285.78;6283890;20;2854506;-59
2022/11/20 01:01:30;;;;;;;;;43.00;33.00;;;;;1.35;100.00;99285.22;6315787;20;2859654;-59
2022/11/20 01:04:00;;;;;;;;;33.00;27.67;;;;;1.08;100.00;99283.34;6282634;20;3601321;-59
2022/11/20 01:06:36;;;;;;;;;36.50;29.50;;;;;0.98;100.00;99275.75;6284088;20;2844172;-60
2022/11/20 01:09:12;;;;;;;;;43.67;30.33;;;;;1.07;100.00;99278.09;6286749;20;2870086;-59
2022/11/20 01:11:44;;;;;;;;;42.50;36.00;;;;;1.06;100.00;99271.94;6314473;20;2851365;-60
2022/11/20 01:14:19;;;;;;;;;45.00;39.50;;;;;1.06;100.00;99261.38;6282185;20;2844126;-59
2022/11/20 01:16:51;;;;;;;;;50.00;39.50;;;;;1.34;100.00;99275.53;6280299;20;2864966;-59
2022/11/20 01:19:23;;;;;;;;;33.00;29.50;;;;;1.26;100.00;99275.75;6280972;20;2843017;-59
2022/11/20 01:21:54;;;;;;;;;43.50;35.50;;;;;1.23;100.00;99266.13;6281540;20;2498228;-59
2022/11/20 01:24:23;;;;;;;;;60.33;40.67;;;;;1.12;100.00;99262.09;6282980;20;2885122;-59
2022/11/20 01:26:52;;;;;;;;;51.50;41.00;;;;;1.28;100.00;99260.72;6312306;20;2859654;-59
2022/11/20 01:29:25;;;;;;;;;50.33;41.00;;;;;1.08;100.00;99262.19;6284326;20;2865995;-59
2022/11/20 01:31:53;;;;;;;;;52.00;36.50;;;;;1.25;100.00;99252.88;6315652;20;2872151;-60
2022/11/20 01:34:23;;;;;;;;;50.00;38.67;;;;;1.20;100.00;99241.59;6281841;20;3630501;-59
2022/11/20 01:36:54;;;;;;;;;59.67;42.33;;;;;1.34;100.00;99239.34;6315250;20;2870254;-59
2022/11/20 01:39:26;;;;;;;;;51.00;43.00;;;;;1.42;100.00;99242.66;6311498;20;2861731;-60
2022/11/20 01:44:58;;;;;;;;;53.50;43.00;;;;;1.38;100.00;99256.88;6314418;20;2849262;-59
2022/11/20 01:47:44;;;;;;;;;55.50;40.00;;;;;1.38;100.00;99261.31;6274117;20;2499312;-60
2022/11/20 01:50:26;;;;;;;;;65.00;43.00;;;;;1.47;100.00;99261.00;6279554;20;2880545;-59
2022/11/20 01:53:08;;;;;;;;;54.00;36.50;;;;;1.56;100.00;99250.16;6275989;20;2872206;-59
2022/11/20 01:55:52;;;;;;;;;61.50;45.00;;;;;1.60;100.00;99240.31;6284005;20;2873190;-60
2022/11/20 01:58:32;;;;;;;;;55.67;41.67;;;;;1.52;100.00;99244.06;6279143;20;3619017;-59
2022/11/20 02:01:03;;;;;;;;;47.33;37.67;;;;;1.38;100.00;99241.00;6314260;20;2871179;-61
2022/11/20 02:03:33;;;;;;;;;49.67;40.33;;;;;1.37;100.00;99238.41;6311122;20;2861885;-60
2022/11/20 02:06:29;;;;;;;;;54.00;41.00;;;;;1.44;100.00;99239.94;6311036;20;2865929;-60
2022/11/20 02:08:58;;;;;;;;;60.33;42.67;;;;;1.37;100.00;99243.69;6278471;20;2886847;-60
2022/11/20 02:11:30;;;;;;;;;58.33;43.33;;;;;1.44;100.00;99254.03;6313097;20;3611850;-60
2022/11/20 02:14:01;;;;;;;;;60.67;43.00;;;;;1.46;100.00;99246.91;6307795;20;2876375;-60
2022/11/20 02:16:43;;;;;;;;;57.00;40.50;;;;;1.35;100.00;99245.53;6313774;20;2862869;-60
2022/11/20 02:19:31;;;;;;;;;59.33;43.33;;;;;1.44;100.00;99245.25;6278258;20;2876417;-60
2022/11/20 02:22:19;;;;;;;;;58.33;41.00;;;;;1.43;100.00;99249.66;6310797;20;2880598;-60
2022/11/20 02:24:51;;;;;;;;;60.33;45.00;;;;;1.33;100.00;99264.09;6312142;20;2868132;-60
2022/11/20 02:27:22;;;;;;;;;48.00;41.50;;;;;1.38;100.00;99262.16;6309604;20;2865943;-60
2022/11/20 02:30:07;;;;;;;;;39.67;32.33;;;;;1.47;100.00;99255.72;6283697;20;3591919;-60
2022/11/20 02:32:38;;;;;;;;;57.33;39.00;;;;;1.40;100.00;99247.13;6281097;20;2872323;-60
2022/11/20 02:35:27;;;;;;;;;62.67;42.67;;;;;1.40;100.00;99248.91;6312198;20;2869129;-60
2022/11/20 02:38:01;;;;;;;;;35.00;26.50;;;;;1.40;100.00;99241.84;6307348;20;2861841;-60
2022/11/20 02:40:30;;;;;;;;;54.50;42.00;;;;;1.32;100.00;99243.84;6279360;20;2871155;-60
2022/11/20 02:42:59;;;;;;;;;59.00;42.33;;;;;1.36;100.00;99253.41;6282857;20;2880640;-60
2022/11/20 02:45:28;;;;;;;;;58.50;42.50;;;;;1.48;100.00;99253.03;6313672;20;2868019;-60
2022/11/20 02:47:57;;;;;;;;;53.00;38.67;;;;;1.31;100.00;99240.31;6280576;20;2864948;-60
2022/11/20 02:50:27;;;;;;;;;46.33;41.00;;;;;1.42;100.00;99232.06;6312817;20;2861945;-60
2022/11/20 02:52:55;;;;;;;;;61.00;45.50;;;;;1.43;100.00;99233.78;6310453;20;2865921;-60
2022/11/20 02:55:24;;;;;;;;;54.00;41.00;;;;;1.40;100.00;99227.75;6279380;20;2871227;-60
2022/11/20 02:57:52;;;;;;;;;49.00;39.00;;;;;1.32;100.00;99222.69;6266800;20;2500414;-60
2022/11/20 03:00:21;;;;;;;;;55.00;42.00;;;;;1.31;100.00;99215.66;6279689;20;2856556;-59
2022/11/20 03:02:50;;;;;;;;;55.33;41.67;;;;;1.32;100.00;99225.34;6282376;20;2881551;-60
2022/11/20 03:05:20;;;;;;;;;59.67;41.33;;;;;1.36;100.00;99216.38;6313077;20;2899321;-59
2022/11/20 03:07:49;;;;;;;;;60.67;44.67;;;;;1.40;100.00;99207.44;6310359;20;2872210;-60
2022/11/20 03:10:18;;;;;;;;;58.00;43.50;;;;;1.44;100.00;99202.91;6312351;20;2851349;-59
2022/11/20 03:12:45;;;;;;;;;28.00;19.50;;;;;1.52;100.00;99207.03;6279301;20;2491973;-60
2022/11/20 03:15:13;;;;;;;;;41.50;36.00;;;;;1.59;100.00;99209.50;6277711;20;2500356;-59
2022/11/20 03:17:42;;;;;;;;;57.00;43.00;;;;;1.48;100.00;99209.84;6278423;20;2858629;-59
2022/11/20 03:20:12;;;;;;;;;54.00;40.67;;;;;1.46;100.00;99216.97;6279923;20;2879570;-59
2022/11/20 03:22:41;;;;;;;;;54.00;41.50;;;;;1.52;100.00;99238.78;6311883;20;2873225;-60
2022/11/20 03:25:09;;;;;;;;;52.50;43.00;;;;;1.49;100.00;99233.59;6279241;20;2851322;-59
2022/11/20 03:27:39;;;;;;;;;63.33;48.33;;;;;1.66;100.00;99229.53;6278071;20;2890053;-60
2022/11/20 03:30:09;;;;;;;;;62.50;49.50;;;;;1.73;100.00;99228.41;6312142;20;2865938;-60
2022/11/20 03:32:37;;;;;;;;;55.00;41.00;;;;;1.78;100.00;99230.91;6278752;20;2842000;-59
2022/11/20 03:35:08;;;;;;;;;58.00;46.00;;;;;1.68;100.00;99228.56;6277921;20;2856622;-59
2022/11/20 03:37:36;;;;;;;;;50.50;38.50;;;;;1.63;100.00;99230.50;6308326;20;2861780;-60
2022/11/20 03:40:06;;;;;;;;;55.50;44.00;;;;;1.69;100.00;99230.31;6276356;20;2858653;-60
2022/11/20 03:42:47;;;;;;;;;54.00;42.00;;;;;1.52;100.00;99229.97;6279338;20;2860658;-59
2022/11/20 03:45:18;;;;;;;;;60.33;44.00;;;;;1.44;100.00;99216.13;6280394;20;2867985;-59
2022/11/20 03:47:48;;;;;;;;;59.00;44.67;;;;;1.51;100.00;99207.97;6311018;20;2864952;-59
2022/11/20 03:50:16;;;;;;;;;60.00;46.00;;;;;1.43;100.00;99202.06;6309612;20;2864863;-60
2022/11/20 03:52:44;;;;;;;;;59.50;48.50;;;;;1.58;100.00;99190.13;6277963;20;2495027;-60
2022/11/20 03:55:12;;;;;;;;;59.50;42.00;;;;;1.68;100.00;99190.66;6276710;20;2495115;-59
2022/11/20 03:57:41;;;;;;;;;89.33;66.67;;;;;1.67;100.00;99187.16;6275103;20;3650314;-59
2022/11/20 04:00:12;;;;;;;;;53.00;40.67;;;;;1.65;100.00;99177.53;6305065;20;2862809;-60
2022/11/20 04:02:41;;;;;;;;;55.00;42.00;;;;;1.73;100.00;99170.19;6312159;20;2847294;-60
2022/11/20 04:05:09;;;;;;;;;60.50;42.50;;;;;1.81;100.00;99176.09;6276544;20;2487796;-59
2022/11/20 04:07:37;;;;;;;;;57.50;43.00;;;;;1.58;100.00;99176.00;6279195;20;2854476;-60
2022/11/20 04:10:07;;;;;;;;;52.67;41.33;;;;;1.67;100.00;99178.34;6278697;20;2856632;-60
2022/11/20 04:12:36;;;;;;;;;57.50;41.50;;;;;1.65;100.00;99169.59;6312165;20;2853436;-59
2022/11/20 04:15:05;;;;;;;;;62.67;46.67;;;;;1.66;100.00;99177.50;6279167;20;2884818;-60
2022/11/20 04:17:33;;;;;;;;;60.50;44.00;;;;;1.63;100.00;99177.56;6305959;20;2489893;-59
2022/11/20 04:20:03;;;;;;;;;62.00;45.00;;;;;1.89;100.00;99181.13;6274588;20;2879517;-60
2022/11/20 04:22:31;;;;;;;;;59.00;48.00;;;;;1.77;100.00;99177.13;6276514;20;2498259;-60
2022/11/20 04:25:00;;;;;;;;;69.33;52.00;;;;;1.62;100.00;99169.72;6282308;20;2882651;-60
2022/11/20 04:27:31;;;;;;;;;99.67;73.67;;;;;1.57;100.00;99169.84;6308707;20;3676436;-59
2022/11/20 04:30:00;;;;;;;;;62.50;45.50;;;;;1.70;100.00;99170.31;6280787;20;2863818;-60
2022/11/20 04:32:29;;;;;;;;;64.67;45.33;;;;;1.61;100.00;99165.34;6278645;20;2877402;-60
2022/11/20 04:34:59;;;;;;;;;64.00;46.67;;;;;1.63;100.00;99153.75;6309381;20;2881698;-60
2022/11/20 04:37:27;;;;;;;;;66.00;48.50;;;;;1.68;100.00;99164.19;6308734;20;2876350;-60
2022/11/20 04:39:56;;;;;;;;;61.50;46.00;;;;;1.65;100.00;99166.94;6279951;20;2866020;-60
2022/11/20 04:42:28;;;;;;;;;56.50;44.50;;;;;1.69;100.00;99165.94;6279083;20;2850269;-60
2022/11/20 04:44:58;;;;;;;;;52.67;43.00;;;;;1.57;100.00;99151.34;6281057;20;2857575;-59
2022/11/20 04:47:26;;;;;;;;;57.00;43.00;;;;;1.62;100.00;99153.84;6308211;20;2858577;-60
2022/11/20 04:49:54;;;;;;;;;59.00;43.00;;;;;1.43;100.00;99165.03;6274626;20;2510688;-59
2022/11/20 04:52:23;;;;;;;;;60.00;43.00;;;;;1.42;100.00;99163.31;6276993;20;2873313;-61
2022/11/20 04:54:53;;;;;;;;;58.33;40.00;;;;;1.40;100.00;99157.19;6277564;20;2876361;-60
2022/11/20 04:57:22;;;;;;;;;60.67;44.33;;;;;1.39;100.00;99142.22;6308242;20;2859689;-60
2022/11/20 04:59:51;;;;;;;;;50.00;43.50;;;;;1.44;100.00;99145.59;6309509;20;2844094;-60
2022/11/20 05:02:21;;;;;;;;;59.50;44.50;;;;;1.54;100.00;99139.06;6280588;20;2870046;-60
2022/11/20 05:04:49;;;;;;;;;56.50;43.50;;;;;1.25;100.00;99149.75;6275377;20;2497200;-59
2022/11/20 05:07:16;;;;;;;;;61.00;43.50;;;;;1.56;100.00;99154.03;6274001;20;2495184;-60
2022/11/20 05:09:45;;;;;;;;;59.00;47.00;;;;;1.57;100.00;99145.19;6279070;20;2856562;-59
2022/11/20 05:12:14;;;;;;;;;54.50;41.50;;;;;1.41;100.00;99150.97;6278878;20;2854450;-60
2022/11/20 05:14:43;;;;;;;;;70.33;52.00;;;;;1.53;100.00;99144.44;6275723;20;2887829;-60
2022/11/20 05:17:12;;;;;;;;;60.00;47.00;;;;;1.46;100.00;99135.81;6308274;20;2860848;-60
2022/11/20 05:19:41;;;;;;;;;54.50;44.00;;;;;1.65;100.00;99127.25;6271489;20;2856567;-60
2022/11/20 05:22:10;;;;;;;;;54.67;40.67;;;;;1.57;100.00;99124.03;6283340;20;2870801;-60
2022/11/20 05:24:39;;;;;;;;;59.00;43.50;;;;;1.53;100.00;99123.28;6314770;20;2869129;-60
2022/11/20 05:27:08;;;;;;;;;64.33;49.00;;;;;1.63;100.00;99126.44;6282043;20;2871240;-60
2022/11/20 05:29:38;;;;;;;;;65.67;51.33;;;;;1.59;100.00;99127.47;6311733;20;3626465;-60
2022/11/20 05:32:09;;;;;;;;;54.00;41.50;;;;;1.53;100.00;99124.13;6313218;20;2850348;-60
2022/11/20 05:34:37;;;;;;;;;48.00;39.00;;;;;1.61;100.00;99125.66;6278394;20;2500377;-61
2022/11/20 05:37:06;;;;;;;;;56.33;40.67;;;;;1.67;100.00;99122.78;6279802;20;2874272;-60
2022/11/20 05:39:36;;;;;;;;;44.33;33.67;;;;;1.62;100.00;99096.47;6312762;20;3617967;-60
2022/11/20 05:44:52;;;;;;;;;54.00;41.50;;;;;1.47;100.00;99113.72;6316991;20;2857642;-60
2022/11/20 05:47:21;;;;;;;;;53.00;40.50;;;;;1.42;100.00;99105.13;6282640;20;2863877;-60
2022/11/20 05:49:50;;;;;;;;;59.00;46.00;;;;;1.53;100.00;99121.47;6275813;20;2856557;-60
2022/11/20 05:52:18;;;;;;;;;66.00;51.00;;;;;1.71;100.00;99127.94;6277923;20;2497179;-60
2022/11/20 05:54:46;;;;;;;;;43.00;39.50;;;;;1.61;100.00;99125.66;6280588;20;2849231;-61
2022/11/20 05:57:16;;;;;;;;;56.00;44.00;;;;;1.57;100.00;99124.03;6281415;20;2844143;-61
2022/11/20 05:59:43;;;;;;;;;52.50;42.00;;;;;1.67;100.00;99114.84;6280365;20;2526422;-60
2022/11/20 06:02:11;;;;;;;;;29.50;25.00;;;;;1.57;100.00;99116.09;6278915;20;2839943;-60
2022/11/20 06:04:41;;;;;;;;;57.00;40.00;;;;;1.53;100.00;99124.13;6285001;20;3644418;-60
2022/11/20 06:07:11;;;;;;;;;74.00;53.67;;;;;1.66;100.00;99134.28;6311292;20;3640948;-60
2022/11/20 06:09:40;;;;;;;;;63.50;49.50;;;;;1.68;100.00;99140.38;6314987;20;2869322;-61
2022/11/20 06:12:12;;;;;;;;;67.33;53.00;;;;;1.62;100.00;99146.75;6282544;20;2890045;-60
2022/11/20 06:14:41;;;;;;;;;60.50;45.00;;;;;1.69;100.00;99150.06;6313852;20;2882701;-60
2022/11/20 06:17:11;;;;;;;;;76.33;55.67;;;;;1.67;100.00;99146.59;6280210;20;3643040;-60
2022/11/20 06:19:40;;;;;;;;;77.33;58.00;;;;;1.83;100.00;99153.09;6309790;20;3631546;-60
2022/11/20 06:22:10;;;;;;;;;74.67;57.33;;;;;1.78;100.00;99147.09;6311138;20;2887890;-60
2022/11/20 06:24:39;;;;;;;;;63.33;49.00;;;;;1.63;100.00;99135.25;6312167;20;3620131;-60
2022/11/20 06:27:08;;;;;;;;;53.00;41.00;;;;;1.73;100.00;99128.72;6312552;20;2875440;-60
2022/11/20 06:29:36;;;;;;;;;49.50;39.00;;;;;1.77;100.00;99116.25;6283483;20;2850719;-60
2022/11/20 06:32:06;;;;;;;;;49.33;40.33;;;;;1.81;100.00;99123.16;6282292;20;2867072;-60
2022/11/20 06:34:35;;;;;;;;;52.00;40.33;;;;;1.58;100.00;99126.63;6314215;20;3611728;-60
2022/11/20 06:37:05;;;;;;;;;62.00;43.33;;;;;1.82;100.00;99139.91;6313270;20;2875304;-61
2022/11/20 06:39:34;;;;;;;;;60.67;41.67;;;;;1.68;100.00;99145.69;6316028;20;3606521;-60
2022/11/20 06:42:03;;;;;;;;;55.00;44.00;;;;;1.88;100.00;99159.09;6311515;20;2852448;-60
2022/11/20 06:44:32;;;;;;;;;61.50;48.50;;;;;2.00;100.00;99154.28;6280951;20;2863852;-60
2022/11/20 06:47:01;;;;;;;;;65.00;49.00;;;;;1.96;100.00;99164.97;6280962;20;2871150;-60
2022/11/20 06:49:30;;;;;;;;;76.67;54.00;;;;;2.02;100.00;99173.63;6282030;20;3639836;-60
2022/11/20 06:51:58;;;;;;;;;58.50;44.50;;;;;2.05;100.00;99174.38;6309239;20;2493015;-60
2022/11/20 06:54:27;;;;;;;;;59.00;45.00;;;;;2.26;100.00;99191.28;6281675;20;2857615;-60
2022/11/20 06:56:56;;;;;;;;;76.67;55.33;;;;;2.00;100.00;99180.75;6278199;20;3640868;-60
2022/11/20 06:59:26;;;;;;;;;69.67;51.67;;;;;2.06;100.00;99185.84;6309372;20;3649234;-60
2022/11/20 07:01:55;;;;;;;;;89.67;59.67;;;;;2.04;100.00;99185.91;6309956;20;3651296;-60
2022/11/20 07:04:25;;;;;;;;;69.67;51.33;;;;;2.16;100.00;99176.66;6276004;20;2888799;-60
2022/11/20 07:06:54;;;;;;;;;68.00;51.67;;;;;2.34;100.00;99175.13;6312661;20;2881750;-60
2022/11/20 07:09:24;;;;;;;;;58.00;41.00;;;;;2.15;100.00;99148.44;6312074;20;3631528;-60
2022/11/20 07:11:54;;;;;;;;;56.00;40.00;;;;;2.32;100.00;99135.47;6313781;20;2869190;-60
2022/11/20 07:14:23;;;;;;;;;59.67;43.67;;;;;2.26;100.00;99150.69;6306888;20;3632671;-60
2022/11/20 07:16:52;;;;;;;;;57.00;42.00;;;;;2.31;100.00;99132.84;6312465;20;2850352;-60
2022/11/20 07:19:21;;;;;;;;;60.50;46.00;;;;;2.41;100.00;99140.41;6277500;20;2873344;-60
2022/11/20 07:21:50;;;;;;;;;68.33;49.33;;;;;2.59;100.00;99148.59;6277888;20;3643008;-60
2022/11/20 07:24:20;;;;;;;;;70.33;51.00;;;;;2.57;100.00;99142.47;6309686;20;3643984;-60
2022/11/20 07:26:49;;;;;;;;;63.67;47.33;;;;;2.62;100.00;99151.97;6312455;20;2885786;-60
2022/11/20 07:29:18;;;;;;;;;55.50;42.00;;;;;2.72;100.00;99165.75;6311089;20;2856632;-60
2022/11/20 07:31:48;;;;;;;;;58.67;44.33;;;;;2.79;100.00;99163.72;6283253;20;2877465;-60
2022/11/20 07:34:18;;;;;;;;;62.00;44.33;;;;;2.82;100.00;99180.41;6311413;20;2887960;-60
2022/11/20 07:36:47;;;;;;;;;61.00;44.00;;;;;2.84;100.00;99186.50;6313589;20;3627339;-60
2022/11/20 07:39:17;;;;;;;;;54.33;43.67;;;;;2.93;100.00;99197.69;6311625;20;2858716;-60
2022/11/20 07:41:46;;;;;;;;;62.00;43.67;;;;;3.00;100.00;99185.91;6313040;20;3632542;-61
2022/11/20 07:44:16;;;;;;;;;62.00;46.67;;;;;3.32;100.00;99192.59;6306875;20;2876357;-60
2022/11/20 07:46:45;;;;;;;;;58.67;44.00;;;;;3.20;100.00;99199.25;6308993;20;2900334;-60
2022/11/20 07:49:15;;;;;;;;;63.33;50.67;;;;;2.99;100.00;99194.78;6306306;20;3630505;-60
2022/11/20 07:51:44;;;;;;;;;65.67;46.67;;;;;3.14;100.00;99191.53;6310497;20;3641965;-60
2022/11/20 07:54:21;;;;;;;;;65.67;48.33;;;;;3.14;100.00;99204.81;6311530;20;2872363;-60
2022/11/20 07:56:50;;;;;;;;;68.33;49.67;;;;;3.29;100.00;99198.91;6310011;20;3650228;-60
2022/11/20 07:59:20;;;;;;;;;64.33;49.00;;;;;3.28;100.00;99202.47;6309003;20;2862809;-61
2022/11/20 08:01:50;;;;;;;;;62.67;48.33;;;;;3.37;100.00;99195.06;6310681;20;3614869;-60
2022/11/20 08:04:19;;;;;;;;;67.67;49.00;;;;;3.51;100.00;99214.81;6311620;20;3635665;-60
2022/11/20 08:06:49;;;;;;;;;62.33;47.00;;;;;3.40;100.00;99198.47;6308370;20;3633621;-60
2022/11/20 08:09:18;;;;;;;;;60.33;48.33;;;;;3.52;100.00;99191.78;6309882;20;2874260;-60
2022/11/20 08:14:36;;;;;;;;;61.00;50.00;;;;;3.71;100.00;99216.66;6280905;20;3623166;-60
2022/11/20 08:17:05;;;;;;;;;64.00;48.00;;;;;3.89;100.00;99208.84;6309344;20;3638352;-60
2022/11/20 08:19:34;;;;;;;;;60.00;47.00;;;;;3.66;100.00;99205.38;6308391;20;2873220;-60
2022/11/20 08:22:02;;;;;;;;;61.50;49.00;;;;;3.90;100.00;99203.47;6280429;20;2863853;-60
2022/11/20 08:24:32;;;;;;;;;59.67;43.00;;;;;3.99;99.72;99202.22;6279205;20;3637800;-60
2022/11/20 08:27:01;;;;;;;;;75.33;56.00;;;;;3.88;99.67;99208.00;6311582;20;3639869;-60
2022/11/20 08:29:31;;;;;;;;;72.67;54.67;;;;;3.92;100.00;99214.03;6314230;20;3636805;-60
2022/11/20 08:32:00;;;;;;;;;71.67;51.00;;;;;3.97;99.67;99217.34;6311010;20;3649212;-60
2022/11/20 08:34:30;;;;;;;;;66.33;51.33;;;;;4.11;98.96;99215.00;6313611;20;3617932;-60
2022/11/20 08:37:02;;;;;;;;;69.33;51.67;;;;;4.03;98.44;99211.81;6312833;20;3631516;-60
2022/11/20 08:39:31;;;;;;;;;64.00;49.00;;;;;3.98;98.48;99203.16;6314017;20;2872241;-61
2022/11/20 08:42:00;;;;;;;;;65.50;52.50;;;;;3.77;98.43;99190.78;6307942;20;2870042;-61
2022/11/20 08:44:29;;;;;;;;;67.00;50.67;;;;;3.99;98.71;99212.84;6278251;20;3635791;-60
2022/11/20 08:46:59;;;;;;;;;62.33;49.67;;;;;4.07;98.13;99208.06;6308105;20;2856626;-60
2022/11/20 08:49:27;;;;;;;;;53.50;46.00;;;;;4.05;97.94;99211.72;6303437;20;2849243;-60
2022/11/20 08:51:57;;;;;;;;;61.67;48.00;;;;;4.02;98.09;99228.66;6280524;20;3634633;-60
2022/11/20 08:54:27;;;;;;;;;70.33;54.00;;;;;4.36;97.49;99216.56;6311389;20;3632546;-61
2022/11/20 08:56:56;;;;;;;;;76.67;54.33;;;;;4.23;97.43;99215.38;6314926;20;3658714;-61
2022/11/20 08:59:26;;;;;;;;;73.33;54.33;;;;;4.12;97.58;99215.84;6316360;20;3648192;-60
2022/11/20 09:02:15;;;;;;;;;74.33;55.67;;;;;4.22;97.93;99217.19;6309209;20;3649239;-61
2022/11/20 09:04:45;;;;;;;;;75.33;57.33;;;;;4.30;97.61;99225.69;6318933;20;3627370;-61
2022/11/20 09:07:14;;;;;;;;;67.67;51.00;;;;;4.07;97.91;99224.00;6317480;20;3625311;-61
2022/11/20 09:09:44;;;;;;;;;79.67;58.33;;;;;4.06;97.75;99221.44;6318036;20;3650310;-61
2022/11/20 09:12:14;;;;;;;;;74.67;56.33;;;;;4.56;98.03;99243.16;6317028;20;3651329;-60
2022/11/20 09:14:44;;;;;;;;;68.00;51.33;;;;;4.28;97.51;99238.16;6316700;20;3640947;-60
2022/11/20 09:17:14;;;;;;;;;60.33;44.33;;;;;4.59;96.89;99247.47;6315280;20;2867088;-60
2022/11/20 09:19:44;;;;;;;;;58.00;45.67;;;;;4.66;95.95;99250.69;6314868;20;2875516;-60
2022/11/20 09:22:13;;;;;;;;;55.00;45.50;;;;;4.64;95.63;99249.94;6315353;20;2852623;-61
2022/11/20 09:24:42;;;;;;;;;60.00;44.67;;;;;4.80;96.55;99243.84;6283495;20;2870173;-59
2022/11/20 09:27:12;;;;;;;;;65.00;47.00;;;;;4.80;95.37;99229.69;6315532;20;2879537;-59
2022/11/20 09:29:41;;;;;;;;;60.00;43.00;;;;;4.34;95.43;99199.81;6317134;20;2874346;-62
2022/11/20 09:32:11;;;;;;;;;67.67;50.67;;;;;4.38;95.56;99196.13;6311087;20;2867097;-61
2022/11/20 09:34:40;;;;;;;;;59.67;43.00;;;;;4.79;95.90;99196.03;6317222;20;2872169;-61
2022/11/20 09:37:10;;;;;;;;;60.67;44.33;;;;;5.01;94.69;99202.09;6311897;20;2874726;-61
2022/11/20 09:39:39;;;;;;;;;53.00;40.00;;;;;4.95;92.99;99212.16;6314922;20;2860848;-61
2022/11/20 09:42:40;;;;;;;;;51.00;40.00;;;;;4.75;93.71;99211.28;6314831;20;3593110;-60
2022/11/20 09:45:44;;;;;;;;;54.50;40.00;;;;;4.93;93.27;99214.91;6284491;20;2854450;-61
2022/11/20 09:48:50;;;;;;;;;58.00;49.00;;;;;4.80;93.95;99209.28;6277529;20;2847180;-60
2022/11/20 09:51:51;;;;;;;;;56.50;43.00;;;;;4.83;93.98;99194.97;6280651;20;2857707;-61
2022/11/20 09:54:31;;;;;;;;;58.33;43.33;;;;;4.89;93.35;99186.69;6279607;20;2874458;-61
2022/11/20 09:57:19;;;;;;;;;68.33;51.00;;;;;5.16;93.43;99186.34;6310459;20;3636736;-61
2022/11/20 09:59:56;;;;;;;;;54.00;43.00;;;;;5.14;92.83;99175.78;6312185;20;2854496;-61
2022/11/20 10:02:49;;;;;;;;;59.00;48.00;;;;;5.45;94.65;99175.16;6283032;20;2872206;-61
2022/11/20 10:05:50;;;;;;;;;66.00;46.00;;;;;5.71;93.89;99175.66;6309352;20;3633586;-59
2022/11/20 10:08:35;;;;;;;;;60.33;46.00;;;;;5.15;93.66;99174.84;6308162;20;3619011;-61
2022/11/20 10:11:33;;;;;;;;;78.67;58.67;;;;;5.45;95.65;99169.84;6314335;20;3654444;-61
2022/11/20 10:14:25;;;;;;;;;68.33;50.33;;;;;5.28;93.63;99160.00;6309002;20;3641002;-61
2022/11/20 10:17:55;;;;;;;;;69.00;53.00;;;;;5.48;93.44;99153.72;6313822;20;3631550;-61
2022/11/20 10:21:03;;;;;;;;;75.67;56.67;;;;;5.73;93.75;99141.81;6280340;20;3646231;-61
2022/11/20 10:24:02;;;;;;;;;76.33;58.00;;;;;5.65;93.74;99142.22;6279718;20;2869142;-60
2022/11/20 10:27:13;;;;;;;;;85.33;62.67;;;;;5.84;94.17;99144.78;6310701;20;3637825;-60
2022/11/20 10:30:16;;;;;;;;;67.00;52.00;;;;;5.95;93.27;99141.66;6311190;20;3635701;-61
2022/11/20 10:33:41;;;;;;;;;66.33;48.67;;;;;6.18;92.63;99147.56;6312637;20;3640996;-61
2022/11/20 10:37:16;;;;;;;;;66.00;50.67;;;;;6.26;92.71;99166.69;6309147;20;3648201;-60
2022/11/20 10:40:24;;;;;;;;;73.33;56.00;;;;;6.46;93.02;99169.16;6312533;20;3637791;-62
2022/11/20 10:43:24;;;;;;;;;63.67;51.00;;;;;6.52;91.07;99175.97;6309894;20;3613824;-60
2022/11/20 10:46:21;;;;;;;;;50.50;38.00;;;;;6.26;90.32;99188.88;6307278;20;2862212;-61
2022/11/20 10:48:51;;;;;;;;;66.33;50.67;;;;;6.65;89.85;99181.53;6275770;20;3633714;-61
2022/11/20 10:52:10;;;;;;;;;67.33;53.33;;;;;6.58;89.73;99178.31;6312399;20;3629494;-54
2022/11/20 10:55:32;;;;;;;;;59.00;46.00;;;;;6.65;87.49;99168.19;6312179;20;3613797;-58
2022/11/20 10:58:23;;;;;;;;;58.67;46.00;;;;;6.65;87.18;99169.03;6308621;20;2877357;-61
2022/11/20 11:01:02;;;;;;;;;70.33;51.33;;;;;6.52;87.33;99171.50;6308206;20;3638817;-61
2022/11/20 11:03:32;;;;;;;;;64.33;50.00;;;;;6.64;88.10;99182.47;6308451;20;3640963;-60
2022/11/20 11:06:23;;;;;;;;;59.67;45.67;;;;;6.85;87.58;99185.78;6310302;20;3626327;-60
2022/11/20 11:08:56;;;;;;;;;66.00;51.33;;;;;6.66;88.41;99176.13;6312333;20;3622151;-60
2022/11/20 11:11:34;;;;;;;;;55.00;42.33;;;;;6.70;88.05;99174.13;6307031;20;2861850;-59
2022/11/20 11:14:14;;;;;;;;;50.50;44.50;;;;;6.73;88.00;99188.16;6306002;20;2862767;-60
2022/11/20 11:16:56;;;;;;;;;51.00;42.50;;;;;6.74;87.86;99179.22;6274215;20;2848184;-60
2022/11/20 11:19:26;;;;;;;;;59.67;46.67;;;;;6.55;87.40;99178.47;6276323;20;3612782;-60
2022/11/20 11:21:57;;;;;;;;;47.00;41.33;;;;;6.76;87.11;99176.47;6315248;20;3595075;-60
2022/11/20 11:24:30;;;;;;;;;53.00;42.33;;;;;7.13;86.11;99171.78;6274732;20;2869080;-60
2022/11/20 11:27:17;;;;;;;;;13.60;12.20;;;;;7.09;86.39;99173.75;6331383;20;2799278;-60
2022/11/20 11:29:47;;;;;;;;;48.33;38.33;;;;;7.18;85.30;99178.56;6280178;20;3622334;-60
2022/11/20 11:32:21;;;;;;;;;55.67;42.33;;;;;7.17;86.67;99184.88;6311423;20;3616993;-59
2022/11/20 11:35:21;;;;;;;;;54.00;42.00;;;;;7.09;86.31;99178.25;6309882;20;2870228;-60
2022/11/20 11:37:55;;;;;;;;;68.00;51.75;;;;;7.26;86.65;99183.50;6307330;20;3646184;-59
2022/11/20 11:40:36;;;;;;;;;53.33;41.33;;;;;7.23;86.95;99170.31;6308470;20;2878469;-58
2022/11/20 11:46:55;;;;;;;;;51.00;40.33;;;;;7.41;87.96;99141.72;6309826;20;3623193;-58